createdAt,value
2019-02-04T00:28:40.220Z,1020.73
2019-02-04T00:28:40.713Z,1020.75
2019-02-04T00:28:41.311Z,1020.65
2019-02-04T00:28:41.910Z,1020.64
2019-02-04T00:28:42.510Z,1020.61
2019-02-04T00:28:43.110Z,1020.61
2019-02-04T00:28:43.709Z,1020.58
2019-02-04T00:28:44.310Z,1020.64
2019-02-04T00:29:38.808Z,1020.67
2019-02-04T00:29:39.382Z,1020.60
2019-02-04T00:29:39.982Z,1020.55
2019-02-04T00:29:40.580Z,1020.54
2019-02-04T00:29:41.180Z,1020.56
2019-02-04T00:29:41.783Z,1020.54
2019-02-04T00:29:42.384Z,1020.57
2019-02-04T00:29:42.980Z,1020.56
2019-02-04T00:30:37.486Z,1020.60
2019-02-04T00:30:38.058Z,1020.55
2019-02-04T00:30:38.662Z,1020.57
2019-02-04T00:30:39.257Z,1020.53
2019-02-04T00:30:39.857Z,1020.53
2019-02-04T00:30:40.457Z,1020.49
2019-02-04T00:30:41.055Z,1020.53
2019-02-04T00:30:41.655Z,1020.53
2019-02-04T00:31:35.139Z,1020.57
2019-02-04T00:31:35.712Z,1020.54
2019-02-04T00:31:36.314Z,1020.51
2019-02-04T00:31:36.911Z,1020.53
2019-02-04T00:31:37.511Z,1020.55
2019-02-04T00:31:38.111Z,1020.53
2019-02-04T00:31:38.713Z,1020.49
2019-02-04T00:31:39.308Z,1020.52
2019-02-04T00:32:32.791Z,1020.57
2019-02-04T00:32:33.363Z,1020.54
2019-02-04T00:32:33.963Z,1020.52
2019-02-04T00:32:34.562Z,1020.50
2019-02-04T00:32:35.163Z,1020.50
2019-02-04T00:32:35.761Z,1020.46
2019-02-04T00:32:36.360Z,1020.50
2019-02-04T00:32:36.959Z,1020.49
2019-02-04T00:33:30.443Z,1020.60
2019-02-04T00:33:31.017Z,1020.54
2019-02-04T00:33:31.614Z,1020.47
2019-02-04T00:33:32.219Z,1020.47
2019-02-04T00:33:32.815Z,1020.50
2019-02-04T00:33:33.414Z,1020.48
2019-02-04T00:33:34.015Z,1020.48
2019-02-04T00:33:34.616Z,1020.47
2019-02-04T00:34:28.096Z,1020.59
2019-02-04T00:34:28.668Z,1020.47
2019-02-04T00:34:29.268Z,1020.45
2019-02-04T00:34:29.868Z,1020.47
2019-02-04T00:34:30.466Z,1020.48
2019-02-04T00:34:31.073Z,1020.44
2019-02-04T00:34:31.667Z,1020.49
2019-02-04T00:34:32.265Z,1020.47
2019-02-04T00:35:25.746Z,1020.54
2019-02-04T00:35:26.323Z,1020.50
2019-02-04T00:35:26.918Z,1020.46
2019-02-04T00:35:27.522Z,1020.45
2019-02-04T00:35:28.118Z,1020.44
2019-02-04T00:35:28.719Z,1020.47
2019-02-04T00:35:29.318Z,1020.46
2019-02-04T00:35:29.917Z,1020.46
2019-02-04T00:36:23.401Z,1020.51
2019-02-04T00:36:23.971Z,1020.48
2019-02-04T00:36:24.573Z,1020.42
2019-02-04T00:36:25.171Z,1020.45
2019-02-04T00:36:25.771Z,1020.45
2019-02-04T00:36:26.379Z,1020.44
2019-02-04T00:36:26.969Z,1020.46
2019-02-04T00:36:27.572Z,1020.47
2019-02-04T00:37:21.066Z,1020.53
2019-02-04T00:37:21.623Z,1020.49
2019-02-04T00:37:22.227Z,1020.45
2019-02-04T00:37:22.823Z,1020.44
2019-02-04T00:37:23.422Z,1020.49
2019-02-04T00:37:24.022Z,1020.48
2019-02-04T00:37:24.622Z,1020.46
2019-02-04T00:37:25.221Z,1020.50
2019-02-04T00:38:18.703Z,1020.56
2019-02-04T00:38:19.276Z,1020.53
2019-02-04T00:38:19.876Z,1020.45
2019-02-04T00:38:20.474Z,1020.44
2019-02-04T00:38:21.072Z,1020.43
2019-02-04T00:38:21.674Z,1020.44
2019-02-04T00:38:22.274Z,1020.44
2019-02-04T00:38:22.980Z,1020.45
2019-02-04T00:39:16.354Z,1020.57
2019-02-04T00:39:16.927Z,1020.51
2019-02-04T00:39:17.526Z,1020.52
2019-02-04T00:39:18.126Z,1020.49
2019-02-04T00:39:18.728Z,1020.49
2019-02-04T00:39:19.328Z,1020.52
2019-02-04T00:39:19.925Z,1020.48
2019-02-04T00:39:20.531Z,1020.49
2019-02-04T00:40:26.704Z,1020.62
2019-02-04T00:40:27.276Z,1020.51
2019-02-04T00:40:27.876Z,1020.50
2019-02-04T00:40:28.476Z,1020.54
2019-02-04T00:40:29.077Z,1020.44
2019-02-04T00:40:29.676Z,1020.53
2019-02-04T00:40:30.276Z,1020.51
2019-02-04T00:40:30.877Z,1020.58
2019-02-04T00:41:24.360Z,1020.61
2019-02-04T00:41:24.928Z,1020.53
2019-02-04T00:41:25.529Z,1020.50
2019-02-04T00:41:26.131Z,1020.47
2019-02-04T00:41:26.732Z,1020.50
2019-02-04T00:41:27.328Z,1020.50
2019-02-04T00:41:27.928Z,1020.53
2019-02-04T00:41:28.545Z,1020.51
2019-02-04T00:42:23.031Z,1020.61
2019-02-04T00:42:23.603Z,1020.52
2019-02-04T00:42:24.203Z,1020.49
2019-02-04T00:42:24.802Z,1020.50
2019-02-04T00:42:25.402Z,1020.49
2019-02-04T00:42:26.003Z,1020.48
2019-02-04T00:42:26.602Z,1020.50
2019-02-04T00:42:27.203Z,1020.51
2019-02-04T00:43:20.682Z,1020.58
2019-02-04T00:43:21.256Z,1020.51
2019-02-04T00:43:21.855Z,1020.54
2019-02-04T00:43:22.456Z,1020.53
2019-02-04T00:43:23.055Z,1020.53
2019-02-04T00:43:23.654Z,1020.55
2019-02-04T00:43:24.254Z,1020.52
2019-02-04T00:43:24.857Z,1020.56
2019-02-04T00:44:19.366Z,1020.62
2019-02-04T00:44:19.931Z,1020.53
2019-02-04T00:44:20.531Z,1020.51
2019-02-04T00:44:21.132Z,1020.52
2019-02-04T00:44:21.730Z,1020.54
2019-02-04T00:44:22.330Z,1020.53
2019-02-04T00:44:22.933Z,1020.54
2019-02-04T00:44:23.533Z,1020.53
2019-02-04T00:45:17.012Z,1020.60
2019-02-04T00:45:17.585Z,1020.56
2019-02-04T00:45:18.185Z,1020.54
2019-02-04T00:45:18.783Z,1020.54
2019-02-04T00:45:19.382Z,1020.58
2019-02-04T00:45:19.984Z,1020.55
2019-02-04T00:45:20.582Z,1020.57
2019-02-04T00:45:21.186Z,1020.54
2019-02-04T00:46:15.687Z,1020.57
2019-02-04T00:46:16.257Z,1020.52
2019-02-04T00:46:16.857Z,1020.53
2019-02-04T00:46:17.458Z,1020.52
2019-02-04T00:46:18.057Z,1020.53
2019-02-04T00:46:18.658Z,1020.56
2019-02-04T00:46:19.262Z,1020.55
2019-02-04T00:46:19.863Z,1020.56
2019-02-04T00:47:13.338Z,1020.58
2019-02-04T00:47:13.910Z,1020.50
2019-02-04T00:47:14.512Z,1020.57
2019-02-04T00:47:15.111Z,1020.59
2019-02-04T00:47:15.712Z,1020.55
2019-02-04T00:47:16.310Z,1020.54
2019-02-04T00:47:16.910Z,1020.56
2019-02-04T00:47:17.512Z,1020.55
2019-02-04T00:48:10.988Z,1020.62
2019-02-04T00:48:11.563Z,1020.51
2019-02-04T00:48:12.162Z,1020.52
2019-02-04T00:48:12.760Z,1020.53
2019-02-04T00:48:13.361Z,1020.52
2019-02-04T00:48:13.961Z,1020.50
2019-02-04T00:48:14.561Z,1020.56
2019-02-04T00:48:15.160Z,1020.55
2019-02-04T00:49:09.666Z,1020.55
2019-02-04T00:49:10.239Z,1020.47
2019-02-04T00:49:10.837Z,1020.47
2019-02-04T00:49:11.437Z,1020.47
2019-02-04T00:49:12.037Z,1020.47
2019-02-04T00:49:12.636Z,1020.46
2019-02-04T00:49:13.237Z,1020.48
2019-02-04T00:49:13.839Z,1020.51
2019-02-04T00:50:08.341Z,1020.58
2019-02-04T00:50:08.914Z,1020.50
2019-02-04T00:50:09.513Z,1020.49
2019-02-04T00:50:10.113Z,1020.47
2019-02-04T00:50:10.713Z,1020.48
2019-02-04T00:50:11.316Z,1020.46
2019-02-04T00:50:11.912Z,1020.46
2019-02-04T00:50:12.513Z,1020.49
2019-02-04T00:51:05.992Z,1020.58
2019-02-04T00:51:06.566Z,1020.48
2019-02-04T00:51:07.165Z,1020.43
2019-02-04T00:51:07.765Z,1020.46
2019-02-04T00:51:08.365Z,1020.44
2019-02-04T00:51:08.964Z,1020.45
2019-02-04T00:51:09.565Z,1020.47
2019-02-04T00:51:10.165Z,1020.46
2019-02-04T00:52:03.644Z,1020.55
2019-02-04T00:52:04.217Z,1020.45
2019-02-04T00:52:04.817Z,1020.48
2019-02-04T00:52:05.419Z,1020.50
2019-02-04T00:52:06.016Z,1020.50
2019-02-04T00:52:06.616Z,1020.47
2019-02-04T00:52:07.218Z,1020.54
2019-02-04T00:52:07.818Z,1020.52
2019-02-04T00:53:02.321Z,1020.62
2019-02-04T00:53:02.904Z,1020.53
2019-02-04T00:53:03.491Z,1020.47
2019-02-04T00:53:04.092Z,1020.50
2019-02-04T00:53:04.692Z,1020.50
2019-02-04T00:53:05.294Z,1020.49
2019-02-04T00:53:05.888Z,1020.45
2019-02-04T00:53:06.495Z,1020.52
2019-02-04T00:53:59.973Z,1020.60
2019-02-04T00:54:00.545Z,1020.53
2019-02-04T00:54:01.145Z,1020.47
2019-02-04T00:54:01.745Z,1020.52
2019-02-04T00:54:02.345Z,1020.49
2019-02-04T00:54:02.946Z,1020.50
2019-02-04T00:54:03.544Z,1020.51
2019-02-04T00:54:04.145Z,1020.52
2019-02-04T00:54:57.623Z,1020.56
2019-02-04T00:54:58.199Z,1020.49
2019-02-04T00:54:58.796Z,1020.48
2019-02-04T00:54:59.400Z,1020.48
2019-02-04T00:55:00.103Z,1020.48
2019-02-04T00:55:00.600Z,1020.51
2019-02-04T00:55:01.198Z,1020.47
2019-02-04T00:55:01.798Z,1020.50
2019-02-04T00:55:55.278Z,1020.60
2019-02-04T00:55:55.848Z,1020.50
2019-02-04T00:55:56.450Z,1020.45
2019-02-04T00:55:57.048Z,1020.50
2019-02-04T00:55:57.649Z,1020.44
2019-02-04T00:55:58.247Z,1020.48
2019-02-04T00:55:58.848Z,1020.51
2019-02-04T00:55:59.448Z,1020.52
2019-02-04T00:56:53.951Z,1020.64
2019-02-04T00:56:54.538Z,1020.51
2019-02-04T00:56:55.123Z,1020.46
2019-02-04T00:56:55.724Z,1020.47
2019-02-04T00:56:56.323Z,1020.49
2019-02-04T00:56:56.923Z,1020.45
2019-02-04T00:56:57.522Z,1020.49
2019-02-04T00:56:58.123Z,1020.47
2019-02-04T00:57:52.626Z,1020.62
2019-02-04T00:57:53.198Z,1020.52
2019-02-04T00:57:53.800Z,1020.52
2019-02-04T00:57:54.399Z,1020.53
2019-02-04T00:57:54.997Z,1020.52
2019-02-04T00:57:55.602Z,1020.50
2019-02-04T00:57:56.198Z,1020.52
2019-02-04T00:57:56.797Z,1020.48
2019-02-04T00:58:50.280Z,1020.64
2019-02-04T00:58:50.859Z,1020.53
2019-02-04T00:58:51.453Z,1020.49
2019-02-04T00:58:52.052Z,1020.52
2019-02-04T00:58:52.651Z,1020.53
2019-02-04T00:58:53.250Z,1020.57
2019-02-04T00:58:53.850Z,1020.55
2019-02-04T00:58:54.450Z,1020.50
2019-02-04T00:59:47.932Z,1020.60
2019-02-04T00:59:48.559Z,1020.53
2019-02-04T00:59:49.103Z,1020.46
2019-02-04T00:59:49.703Z,1020.51
2019-02-04T00:59:50.303Z,1020.51
2019-02-04T00:59:50.904Z,1020.50
2019-02-04T00:59:51.502Z,1020.56
2019-02-04T00:59:52.106Z,1020.56
2019-02-04T01:00:46.606Z,1020.59
2019-02-04T01:00:47.180Z,1020.51
2019-02-04T01:00:47.780Z,1020.50
2019-02-04T01:00:48.378Z,1020.49
2019-02-04T01:00:48.978Z,1020.51
2019-02-04T01:00:49.577Z,1020.52
2019-02-04T01:00:50.179Z,1020.50
2019-02-04T01:00:50.782Z,1020.51
2019-02-04T01:01:44.258Z,1020.60
2019-02-04T01:01:44.831Z,1020.54
2019-02-04T01:01:45.433Z,1020.48
2019-02-04T01:01:46.033Z,1020.48
2019-02-04T01:01:46.630Z,1020.49
2019-02-04T01:01:47.230Z,1020.50
2019-02-04T01:01:47.830Z,1020.46
2019-02-04T01:01:48.429Z,1020.46
2019-02-04T01:02:41.910Z,1020.58
2019-02-04T01:02:42.482Z,1020.52
2019-02-04T01:02:43.081Z,1020.49
2019-02-04T01:02:43.682Z,1020.51
2019-02-04T01:02:44.284Z,1020.49
2019-02-04T01:02:44.885Z,1020.51
2019-02-04T01:02:45.482Z,1020.52
2019-02-04T01:02:46.084Z,1020.53
2019-02-04T01:03:39.560Z,1020.61
2019-02-04T01:03:40.135Z,1020.50
2019-02-04T01:03:40.735Z,1020.47
2019-02-04T01:03:41.337Z,1020.47
2019-02-04T01:03:41.951Z,1020.51
2019-02-04T01:03:42.551Z,1020.48
2019-02-04T01:03:43.131Z,1020.55
2019-02-04T01:03:43.733Z,1020.52
2019-02-04T01:04:37.224Z,1020.63
2019-02-04T01:04:37.797Z,1020.55
2019-02-04T01:04:38.386Z,1020.50
2019-02-04T01:04:38.986Z,1020.54
2019-02-04T01:04:39.585Z,1020.53
2019-02-04T01:04:40.185Z,1020.52
2019-02-04T01:04:40.785Z,1020.54
2019-02-04T01:04:41.386Z,1020.53
2019-02-04T01:05:34.866Z,1020.63
2019-02-04T01:05:35.442Z,1020.57
2019-02-04T01:05:36.041Z,1020.53
2019-02-04T01:05:36.637Z,1020.53
2019-02-04T01:05:37.237Z,1020.51
2019-02-04T01:05:37.837Z,1020.55
2019-02-04T01:05:38.437Z,1020.58
2019-02-04T01:05:39.036Z,1020.54
2019-02-04T01:06:32.515Z,1020.65
2019-02-04T01:06:33.090Z,1020.58
2019-02-04T01:06:33.689Z,1020.54
2019-02-04T01:06:34.290Z,1020.53
2019-02-04T01:06:34.909Z,1020.57
2019-02-04T01:06:35.489Z,1020.57
2019-02-04T01:06:36.087Z,1020.60
2019-02-04T01:06:36.690Z,1020.54
2019-02-04T01:07:31.191Z,1020.63
2019-02-04T01:07:31.764Z,1020.58
2019-02-04T01:07:32.364Z,1020.57
2019-02-04T01:07:32.964Z,1020.55
2019-02-04T01:07:33.563Z,1020.57
2019-02-04T01:07:34.172Z,1020.56
2019-02-04T01:07:34.762Z,1020.59
2019-02-04T01:07:35.360Z,1020.61
2019-02-04T01:08:28.844Z,1020.71
2019-02-04T01:08:29.421Z,1020.65
2019-02-04T01:08:30.017Z,1020.60
2019-02-04T01:08:30.617Z,1020.61
2019-02-04T01:08:31.216Z,1020.63
2019-02-04T01:08:31.818Z,1020.62
2019-02-04T01:08:32.416Z,1020.61
2019-02-04T01:08:33.016Z,1020.62
2019-02-04T01:09:26.506Z,1020.71
2019-02-04T01:09:27.069Z,1020.64
2019-02-04T01:09:27.668Z,1020.61
2019-02-04T01:09:28.269Z,1020.63
2019-02-04T01:09:28.870Z,1020.64
2019-02-04T01:09:29.467Z,1020.65
2019-02-04T01:09:30.068Z,1020.68
2019-02-04T01:09:30.668Z,1020.63
2019-02-04T01:10:25.170Z,1020.77
2019-02-04T01:10:25.743Z,1020.67
2019-02-04T01:10:26.343Z,1020.65
2019-02-04T01:10:26.944Z,1020.64
2019-02-04T01:10:27.544Z,1020.69
2019-02-04T01:10:28.148Z,1020.67
2019-02-04T01:10:28.744Z,1020.65
2019-02-04T01:10:29.345Z,1020.70
2019-02-04T01:11:22.823Z,1020.75
2019-02-04T01:11:23.396Z,1020.64
2019-02-04T01:11:23.996Z,1020.63
2019-02-04T01:11:24.594Z,1020.62
2019-02-04T01:11:25.195Z,1020.67
2019-02-04T01:11:25.794Z,1020.66
2019-02-04T01:11:26.393Z,1020.72
2019-02-04T01:11:26.996Z,1020.70
2019-02-04T01:12:20.474Z,1020.79
2019-02-04T01:12:21.048Z,1020.74
2019-02-04T01:12:21.647Z,1020.69
2019-02-04T01:12:22.247Z,1020.69
2019-02-04T01:12:22.850Z,1020.69
2019-02-04T01:12:23.445Z,1020.70
2019-02-04T01:12:24.046Z,1020.71
2019-02-04T01:12:24.646Z,1020.72
2019-02-04T01:13:19.150Z,1020.82
2019-02-04T01:13:19.723Z,1020.71
2019-02-04T01:13:20.323Z,1020.73
2019-02-04T01:13:20.922Z,1020.72
2019-02-04T01:13:21.522Z,1020.70
2019-02-04T01:13:22.122Z,1020.71
2019-02-04T01:13:22.816Z,1020.76
2019-02-04T01:13:23.322Z,1020.75
2019-02-04T01:14:17.824Z,1020.79
2019-02-04T01:14:18.398Z,1020.74
2019-02-04T01:14:18.998Z,1020.70
2019-02-04T01:14:19.597Z,1020.68
2019-02-04T01:14:20.198Z,1020.70
2019-02-04T01:14:20.801Z,1020.73
2019-02-04T01:14:21.397Z,1020.69
2019-02-04T01:14:21.997Z,1020.71
2019-02-04T01:15:16.504Z,1020.80
2019-02-04T01:15:17.074Z,1020.71
2019-02-04T01:15:17.673Z,1020.68
2019-02-04T01:15:18.274Z,1020.68
2019-02-04T01:15:18.957Z,1020.74
2019-02-04T01:15:19.472Z,1020.78
2019-02-04T01:15:20.077Z,1020.72
2019-02-04T01:15:20.674Z,1020.74
2019-02-04T01:16:15.178Z,1020.78
2019-02-04T01:16:15.750Z,1020.71
2019-02-04T01:16:16.349Z,1020.71
2019-02-04T01:16:16.949Z,1020.66
2019-02-04T01:16:17.550Z,1020.69
2019-02-04T01:16:18.148Z,1020.74
2019-02-04T01:16:18.748Z,1020.73
2019-02-04T01:16:19.352Z,1020.75
2019-02-04T01:17:12.830Z,1020.83
2019-02-04T01:17:13.405Z,1020.76
2019-02-04T01:17:14.002Z,1020.74
2019-02-04T01:17:14.603Z,1020.70
2019-02-04T01:17:15.201Z,1020.73
2019-02-04T01:17:15.801Z,1020.74
2019-02-04T01:17:16.402Z,1020.76
2019-02-04T01:17:17.001Z,1020.76
2019-02-04T01:18:11.504Z,1020.84
2019-02-04T01:18:12.078Z,1020.77
2019-02-04T01:18:12.682Z,1020.74
2019-02-04T01:18:13.276Z,1020.75
2019-02-04T01:18:13.877Z,1020.76
2019-02-04T01:18:14.477Z,1020.78
2019-02-04T01:18:15.076Z,1020.78
2019-02-04T01:18:15.678Z,1020.77
2019-02-04T01:19:09.156Z,1020.91
2019-02-04T01:19:09.730Z,1020.84
2019-02-04T01:19:10.328Z,1020.75
2019-02-04T01:19:10.928Z,1020.77
2019-02-04T01:19:11.530Z,1020.77
2019-02-04T01:19:12.128Z,1020.77
2019-02-04T01:19:12.727Z,1020.83
2019-02-04T01:19:13.329Z,1020.81
2019-02-04T01:20:06.809Z,1020.87
2019-02-04T01:20:07.381Z,1020.83
2019-02-04T01:20:07.982Z,1020.80
2019-02-04T01:20:08.583Z,1020.82
2019-02-04T01:20:09.180Z,1020.84
2019-02-04T01:20:09.780Z,1020.85
2019-02-04T01:20:10.382Z,1020.85
2019-02-04T01:20:10.981Z,1020.87
2019-02-04T01:21:05.483Z,1020.91
2019-02-04T01:21:06.060Z,1020.82
2019-02-04T01:21:06.656Z,1020.80
2019-02-04T01:21:07.259Z,1020.83
2019-02-04T01:21:07.871Z,1020.84
2019-02-04T01:21:08.455Z,1020.82
2019-02-04T01:21:09.060Z,1020.85
2019-02-04T01:21:09.655Z,1020.85
2019-02-04T01:22:04.159Z,1020.86
2019-02-04T01:22:04.732Z,1020.86
2019-02-04T01:22:05.331Z,1020.79
2019-02-04T01:22:05.932Z,1020.80
2019-02-04T01:22:06.532Z,1020.84
2019-02-04T01:22:07.134Z,1020.81
2019-02-04T01:22:07.730Z,1020.86
2019-02-04T01:22:08.330Z,1020.82
2019-02-04T01:23:01.813Z,1020.87
2019-02-04T01:23:02.385Z,1020.80
2019-02-04T01:23:02.985Z,1020.77
2019-02-04T01:23:03.585Z,1020.80
2019-02-04T01:23:04.183Z,1020.83
2019-02-04T01:23:04.783Z,1020.81
2019-02-04T01:23:05.387Z,1020.81
2019-02-04T01:23:05.983Z,1020.81
2019-02-04T01:24:00.487Z,1020.90
2019-02-04T01:24:01.059Z,1020.85
2019-02-04T01:24:01.659Z,1020.80
2019-02-04T01:24:02.259Z,1020.78
2019-02-04T01:24:02.859Z,1020.78
2019-02-04T01:24:03.461Z,1020.82
2019-02-04T01:24:04.055Z,1020.82
2019-02-04T01:24:04.656Z,1020.78
2019-02-04T01:24:59.163Z,1020.90
2019-02-04T01:24:59.736Z,1020.85
2019-02-04T01:25:00.335Z,1020.80
2019-02-04T01:25:00.934Z,1020.83
2019-02-04T01:25:01.536Z,1020.81
2019-02-04T01:25:02.137Z,1020.84
2019-02-04T01:25:02.745Z,1020.82
2019-02-04T01:25:03.334Z,1020.81
2019-02-04T01:25:57.837Z,1020.90
2019-02-04T01:25:58.411Z,1020.85
2019-02-04T01:25:59.010Z,1020.77
2019-02-04T01:25:59.609Z,1020.80
2019-02-04T01:26:00.209Z,1020.83
2019-02-04T01:26:00.810Z,1020.86
2019-02-04T01:26:01.412Z,1020.85
2019-02-04T01:26:02.012Z,1020.88
2019-02-04T01:26:55.491Z,1020.90
2019-02-04T01:26:56.064Z,1020.86
2019-02-04T01:26:56.662Z,1020.81
2019-02-04T01:26:57.264Z,1020.85
2019-02-04T01:26:57.863Z,1020.84
2019-02-04T01:26:58.463Z,1020.82
2019-02-04T01:26:59.124Z,1020.85
2019-02-04T01:26:59.664Z,1020.83
2019-02-04T01:27:54.165Z,1020.91
2019-02-04T01:27:54.740Z,1020.90
2019-02-04T01:27:55.338Z,1020.84
2019-02-04T01:27:55.939Z,1020.81
2019-02-04T01:27:56.538Z,1020.89
2019-02-04T01:27:57.140Z,1020.84
2019-02-04T01:27:57.736Z,1020.89
2019-02-04T01:27:58.334Z,1020.85
2019-02-04T01:28:52.841Z,1020.96
2019-02-04T01:28:53.414Z,1020.93
2019-02-04T01:28:54.013Z,1020.89
2019-02-04T01:28:54.613Z,1020.86
2019-02-04T01:28:55.213Z,1020.88
2019-02-04T01:28:55.813Z,1020.91
2019-02-04T01:28:56.416Z,1020.92
2019-02-04T01:28:57.014Z,1020.89
2019-02-04T01:29:50.492Z,1020.94
2019-02-04T01:29:51.067Z,1020.93
2019-02-04T01:29:51.667Z,1020.93
2019-02-04T01:29:52.267Z,1020.90
2019-02-04T01:29:52.867Z,1020.90
2019-02-04T01:29:53.476Z,1020.93
2019-02-04T01:29:54.066Z,1020.92
2019-02-04T01:29:54.664Z,1020.90
2019-02-04T01:30:48.144Z,1021.01
2019-02-04T01:30:48.730Z,1020.98
2019-02-04T01:30:49.318Z,1020.96
2019-02-04T01:30:49.920Z,1020.92
2019-02-04T01:30:50.517Z,1020.93
2019-02-04T01:30:51.117Z,1020.97
2019-02-04T01:30:51.717Z,1020.97
2019-02-04T01:30:52.317Z,1020.94
2019-02-04T01:31:46.822Z,1020.98
2019-02-04T01:31:47.394Z,1020.95
2019-02-04T01:31:47.991Z,1020.93
2019-02-04T01:31:48.621Z,1020.94
2019-02-04T01:31:49.192Z,1020.94
2019-02-04T01:31:49.794Z,1020.91
2019-02-04T01:31:50.391Z,1020.93
2019-02-04T01:31:50.992Z,1020.94
2019-02-04T01:32:44.473Z,1021.00
2019-02-04T01:32:45.045Z,1020.94
2019-02-04T01:32:45.645Z,1020.92
2019-02-04T01:32:46.253Z,1020.92
2019-02-04T01:32:46.844Z,1020.96
2019-02-04T01:32:47.444Z,1020.94
2019-02-04T01:32:48.044Z,1020.89
2019-02-04T01:32:48.644Z,1020.92
2019-02-04T01:33:42.124Z,1021.00
2019-02-04T01:33:42.697Z,1020.99
2019-02-04T01:33:43.298Z,1020.97
2019-02-04T01:33:43.897Z,1020.96
2019-02-04T01:33:44.496Z,1020.96
2019-02-04T01:33:45.098Z,1020.95
2019-02-04T01:33:45.697Z,1020.97
2019-02-04T01:33:46.296Z,1020.99
2019-02-04T01:34:39.777Z,1020.98
2019-02-04T01:34:40.348Z,1021.01
2019-02-04T01:34:40.947Z,1021.02
2019-02-04T01:34:41.556Z,1020.99
2019-02-04T01:34:42.148Z,1020.97
2019-02-04T01:34:42.748Z,1020.97
2019-02-04T01:34:43.347Z,1021.00
2019-02-04T01:34:43.948Z,1021.01
2019-02-04T01:35:37.428Z,1021.08
2019-02-04T01:35:38.001Z,1021.07
2019-02-04T01:35:38.605Z,1021.04
2019-02-04T01:35:39.202Z,1021.02
2019-02-04T01:35:39.800Z,1021.04
2019-02-04T01:35:40.399Z,1021.05
2019-02-04T01:35:41.000Z,1021.08
2019-02-04T01:35:41.602Z,1021.06
2019-02-04T01:36:36.104Z,1021.11
2019-02-04T01:36:36.675Z,1021.08
2019-02-04T01:36:37.275Z,1021.05
2019-02-04T01:36:37.875Z,1021.01
2019-02-04T01:36:38.475Z,1021.07
2019-02-04T01:36:39.075Z,1021.09
2019-02-04T01:36:39.674Z,1021.08
2019-02-04T01:36:40.274Z,1021.09
2019-02-04T01:37:33.759Z,1021.12
2019-02-04T01:37:34.327Z,1021.13
2019-02-04T01:37:34.927Z,1021.11
2019-02-04T01:37:35.528Z,1021.07
2019-02-04T01:37:36.127Z,1021.07
2019-02-04T01:37:36.726Z,1021.13
2019-02-04T01:37:37.327Z,1021.10
2019-02-04T01:37:37.927Z,1021.13
2019-02-04T01:38:32.430Z,1021.19
2019-02-04T01:38:33.002Z,1021.18
2019-02-04T01:38:33.710Z,1021.17
2019-02-04T01:38:34.206Z,1021.17
2019-02-04T01:38:34.802Z,1021.12
2019-02-04T01:38:35.402Z,1021.15
2019-02-04T01:38:36.002Z,1021.18
2019-02-04T01:38:36.603Z,1021.18
2019-02-04T01:39:30.083Z,1021.22
2019-02-04T01:39:30.656Z,1021.19
2019-02-04T01:39:31.257Z,1021.14
2019-02-04T01:39:31.855Z,1021.16
2019-02-04T01:39:32.455Z,1021.18
2019-02-04T01:39:33.054Z,1021.16
2019-02-04T01:39:33.656Z,1021.18
2019-02-04T01:39:34.254Z,1021.18
2019-02-04T01:40:28.756Z,1021.21
2019-02-04T01:40:29.329Z,1021.20
2019-02-04T01:40:29.929Z,1021.20
2019-02-04T01:40:30.530Z,1021.21
2019-02-04T01:40:31.130Z,1021.22
2019-02-04T01:40:31.743Z,1021.20
2019-02-04T01:40:32.329Z,1021.14
2019-02-04T01:40:32.930Z,1021.23
2019-02-04T01:41:27.433Z,1021.25
2019-02-04T01:41:28.005Z,1021.24
2019-02-04T01:41:28.607Z,1021.24
2019-02-04T01:41:29.205Z,1021.20
2019-02-04T01:41:29.805Z,1021.24
2019-02-04T01:41:33.078Z,1021.25
2019-02-04T01:41:33.210Z,1021.22
2019-02-04T01:41:33.341Z,1021.23
2019-02-04T01:42:25.085Z,1021.30
2019-02-04T01:42:25.660Z,1021.25
2019-02-04T01:42:26.257Z,1021.20
2019-02-04T01:42:26.858Z,1021.23
2019-02-04T01:42:27.467Z,1021.20
2019-02-04T01:42:28.056Z,1021.23
2019-02-04T01:42:28.655Z,1021.22
2019-02-04T01:42:29.256Z,1021.25
2019-02-04T01:43:22.737Z,1021.26
2019-02-04T01:43:23.310Z,1021.27
2019-02-04T01:43:23.910Z,1021.27
2019-02-04T01:43:24.514Z,1021.27
2019-02-04T01:43:25.110Z,1021.25
2019-02-04T01:43:25.708Z,1021.27
2019-02-04T01:43:26.308Z,1021.23
2019-02-04T01:43:26.911Z,1021.23
2019-02-04T01:44:20.389Z,1021.29
2019-02-04T01:44:20.961Z,1021.31
2019-02-04T01:44:21.561Z,1021.29
2019-02-04T01:44:22.177Z,1021.25
2019-02-04T01:44:22.761Z,1021.25
2019-02-04T01:44:23.360Z,1021.26
2019-02-04T01:44:23.961Z,1021.26
2019-02-04T01:44:24.561Z,1021.25
2019-02-04T01:45:19.063Z,1021.26
2019-02-04T01:45:19.637Z,1021.29
2019-02-04T01:45:20.258Z,1021.24
2019-02-04T01:45:20.835Z,1021.26
2019-02-04T01:45:21.441Z,1021.28
2019-02-04T01:45:22.035Z,1021.25
2019-02-04T01:45:22.636Z,1021.24
2019-02-04T01:45:23.234Z,1021.28
2019-02-04T01:46:16.716Z,1021.32
2019-02-04T01:46:17.291Z,1021.31
2019-02-04T01:46:17.888Z,1021.30
2019-02-04T01:46:18.490Z,1021.30
2019-02-04T01:46:19.100Z,1021.28
2019-02-04T01:46:19.689Z,1021.26
2019-02-04T01:46:20.288Z,1021.27
2019-02-04T01:46:20.889Z,1021.29
2019-02-04T01:47:15.392Z,1021.30
2019-02-04T01:47:15.964Z,1021.26
2019-02-04T01:47:16.565Z,1021.29
2019-02-04T01:47:17.166Z,1021.27
2019-02-04T01:47:17.763Z,1021.30
2019-02-04T01:47:18.364Z,1021.27
2019-02-04T01:47:18.964Z,1021.33
2019-02-04T01:47:19.564Z,1021.27
2019-02-04T01:48:13.044Z,1021.29
2019-02-04T01:48:13.617Z,1021.32
2019-02-04T01:48:14.216Z,1021.29
2019-02-04T01:48:14.815Z,1021.27
2019-02-04T01:48:15.415Z,1021.28
2019-02-04T01:48:16.015Z,1021.32
2019-02-04T01:48:16.614Z,1021.34
2019-02-04T01:48:17.228Z,1021.32
2019-02-04T01:49:11.720Z,1021.32
2019-02-04T01:49:12.291Z,1021.28
2019-02-04T01:49:12.890Z,1021.33
2019-02-04T01:49:13.490Z,1021.30
2019-02-04T01:49:14.090Z,1021.33
2019-02-04T01:49:14.690Z,1021.31
2019-02-04T01:49:15.289Z,1021.32
2019-02-04T01:49:15.896Z,1021.31
2019-02-04T01:50:10.394Z,1021.33
2019-02-04T01:50:10.967Z,1021.33
2019-02-04T01:50:11.566Z,1021.31
2019-02-04T01:50:12.166Z,1021.32
2019-02-04T01:50:12.765Z,1021.36
2019-02-04T01:50:13.366Z,1021.34
2019-02-04T01:50:13.965Z,1021.33
2019-02-04T01:50:14.569Z,1021.34
2019-02-04T01:51:09.069Z,1021.33
2019-02-04T01:51:09.644Z,1021.35
2019-02-04T01:51:10.242Z,1021.35
2019-02-04T01:51:10.842Z,1021.32
2019-02-04T01:51:11.442Z,1021.33
2019-02-04T01:51:12.042Z,1021.36
2019-02-04T01:51:12.643Z,1021.36
2019-02-04T01:51:13.240Z,1021.34
2019-02-04T01:52:07.745Z,1021.37
2019-02-04T01:52:08.319Z,1021.40
2019-02-04T01:52:08.918Z,1021.37
2019-02-04T01:52:09.518Z,1021.36
2019-02-04T01:52:10.118Z,1021.38
2019-02-04T01:52:10.717Z,1021.39
2019-02-04T01:52:11.317Z,1021.36
2019-02-04T01:52:11.919Z,1021.37
2019-02-04T01:53:05.399Z,1021.34
2019-02-04T01:53:05.971Z,1021.35
2019-02-04T01:53:06.571Z,1021.37
2019-02-04T01:53:07.171Z,1021.36
2019-02-04T01:53:07.771Z,1021.37
2019-02-04T01:53:08.370Z,1021.38
2019-02-04T01:53:09.021Z,1021.36
2019-02-04T01:53:09.572Z,1021.39
2019-02-04T01:54:03.050Z,1021.41
2019-02-04T01:54:03.621Z,1021.36
2019-02-04T01:54:04.222Z,1021.41
2019-02-04T01:54:04.822Z,1021.38
2019-02-04T01:54:05.422Z,1021.39
2019-02-04T01:54:06.021Z,1021.41
2019-02-04T01:54:06.622Z,1021.42
2019-02-04T01:54:07.222Z,1021.42
2019-02-04T01:55:01.726Z,1021.48
2019-02-04T01:55:02.298Z,1021.41
2019-02-04T01:55:02.897Z,1021.44
2019-02-04T01:55:03.497Z,1021.47
2019-02-04T01:55:04.096Z,1021.42
2019-02-04T01:55:04.696Z,1021.47
2019-02-04T01:55:05.296Z,1021.46
2019-02-04T01:55:05.901Z,1021.44
2019-02-04T01:55:59.377Z,1021.42
2019-02-04T01:55:59.950Z,1021.43
2019-02-04T01:56:00.550Z,1021.47
2019-02-04T01:56:01.150Z,1021.42
2019-02-04T01:56:01.750Z,1021.42
2019-02-04T01:56:02.349Z,1021.46